Time;durP1;ratioP1;P1;durP2;ratioP2;P2;SDS_P1;SDS_P2;PMS_P1;PMS_P2;Temp;Humidity;BMP_temperature;BMP_pressure;BME280_temperature;BME280_humidity;BME280_pressure;Samples;Min_cycle;Max_cycle;Signal;HPM_P1;HPM_P2
2023/03/09 00:02:36;;;;;;;;;;;19.90;33.00;;;;;;8331989;28;19936;-47
2023/03/09 00:06:36;;;;;;;;;;;19.90;32.90;;;;;;8332115;28;19923;-47
2023/03/09 00:10:40;;;;;;;;;;;19.90;32.90;;;;;;8331167;28;20016;-45
2023/03/09 00:14:41;;;;;;;;;;;19.90;32.90;;;;;;8331614;28;19960;-46
2023/03/09 00:18:42;;;;;;;;;;;19.80;32.90;;;;;;8331229;28;19921;-47
2023/03/09 00:22:43;;;;;;;;;;;19.80;33.00;;;;;;8330717;28;19991;-45
2023/03/09 00:27:04;;;;;;;;;;;19.80;33.10;;;;;;8331244;28;19913;-48
2023/03/09 00:31:05;;;;;;;;;;;19.80;33.10;;;;;;8330199;28;19925;-45
2023/03/09 00:35:08;;;;;;;;;;;19.70;33.00;;;;;;8330717;28;19940;-46
2023/03/09 00:39:09;;;;;;;;;;;19.70;33.00;;;;;;8330933;28;19917;-46
2023/03/09 00:43:10;;;;;;;;;;;19.80;33.60;;;;;;8312594;28;20001;-46
2023/03/09 00:47:10;;;;;;;;;;;19.70;33.10;;;;;;8330984;28;20275;-45
2023/03/09 00:51:11;;;;;;;;;;;19.70;33.10;;;;;;8330085;28;20004;-46
2023/03/09 00:55:11;;;;;;;;;;;19.70;33.20;;;;;;8329997;28;19971;-46
2023/03/09 00:59:11;;;;;;;;;;;19.70;33.30;;;;;;8330399;28;19986;-46
2023/03/09 01:03:12;;;;;;;;;;;19.70;33.30;;;;;;8330266;28;20275;-45
2023/03/09 01:07:12;;;;;;;;;;;19.70;33.50;;;;;;8330046;28;19913;-46
2023/03/09 01:11:13;;;;;;;;;;;19.70;33.50;;;;;;8330308;28;19987;-48
2023/03/09 01:15:14;;;;;;;;;;;19.60;33.30;;;;;;8330397;28;19921;-46
2023/03/09 01:19:14;;;;;;;;;;;19.60;33.30;;;;;;8329568;28;19924;-46
2023/03/09 01:23:15;;;;;;;;;;;19.60;33.20;;;;;;8329912;28;19925;-46
2023/03/09 01:27:15;;;;;;;;;;;19.60;33.20;;;;;;8330109;28;20003;-46
2023/03/09 01:31:16;;;;;;;;;;;19.70;33.20;;;;;;8329404;28;20260;-45
2023/03/09 01:35:16;;;;;;;;;;;19.60;33.30;;;;;;8329825;28;20024;-48
2023/03/09 01:39:17;;;;;;;;;;;19.60;33.10;;;;;;8329709;28;19921;-45
2023/03/09 01:43:34;;;;;;;;;;;19.60;33.20;;;;;;8329233;28;20401;-46
2023/03/09 01:47:35;;;;;;;;;;;19.60;33.40;;;;;;8330151;28;19955;-46
2023/03/09 01:51:47;;;;;;;;;;;19.50;33.20;;;;;;8329505;28;19917;-45
2023/03/09 01:55:50;;;;;;;;;;;19.50;33.40;;;;;;8329016;28;20310;-46
2023/03/09 01:59:52;;;;;;;;;;;19.50;33.30;;;;;;8329583;28;19917;-46
2023/03/09 02:03:55;;;;;;;;;;;19.50;33.30;;;;;;8333843;28;19933;-46
2023/03/09 02:07:56;;;;;;;;;;;19.50;33.40;;;;;;8335270;28;19920;-46
2023/03/09 02:11:58;;;;;;;;;;;19.50;33.30;;;;;;8335645;28;19917;-46
2023/03/09 02:15:58;;;;;;;;;;;19.50;33.20;;;;;;8335273;28;19917;-47
2023/03/09 02:20:21;;;;;;;;;;;19.50;33.40;;;;;;8334740;28;19954;-46
2023/03/09 02:24:29;;;;;;;;;;;19.50;33.20;;;;;;8335049;28;19932;-47
2023/03/09 02:28:30;;;;;;;;;;;19.50;33.20;;;;;;8334553;28;19917;-47
2023/03/09 02:32:31;;;;;;;;;;;19.50;33.20;;;;;;8335645;28;20434;-46
2023/03/09 02:36:31;;;;;;;;;;;19.40;33.20;;;;;;8334696;28;19917;-46
2023/03/09 02:40:35;;;;;;;;;;;19.40;33.20;;;;;;8334116;28;20382;-46
2023/03/09 02:44:35;;;;;;;;;;;19.40;33.10;;;;;;8334432;28;20378;-46
2023/03/09 02:48:36;;;;;;;;;;;19.40;33.20;;;;;;8334318;28;19928;-48
2023/03/09 02:52:37;;;;;;;;;;;19.40;33.10;;;;;;8334153;28;19921;-47
2023/03/09 02:56:37;;;;;;;;;;;19.40;33.10;;;;;;8334147;28;19927;-46
2023/03/09 03:00:38;;;;;;;;;;;19.40;33.10;;;;;;8333886;28;19917;-47
2023/03/09 03:04:38;;;;;;;;;;;19.40;33.20;;;;;;8333405;28;19971;-46
2023/03/09 03:08:39;;;;;;;;;;;19.40;33.20;;;;;;8333746;28;19991;-45
2023/03/09 03:12:39;;;;;;;;;;;19.40;33.20;;;;;;8333595;28;19920;-45
2023/03/09 03:16:39;;;;;;;;;;;19.40;33.30;;;;;;8332938;28;19917;-46
2023/03/09 03:20:40;;;;;;;;;;;19.30;33.30;;;;;;8333360;28;19990;-46
2023/03/09 03:24:40;;;;;;;;;;;19.30;33.40;;;;;;8332982;28;19971;-46
2023/03/09 03:28:41;;;;;;;;;;;19.40;33.40;;;;;;8332774;28;19913;-45
2023/03/09 03:32:42;;;;;;;;;;;19.30;33.40;;;;;;8333637;28;20430;-45
2023/03/09 03:36:42;;;;;;;;;;;19.30;33.50;;;;;;8332819;28;19921;-45
2023/03/09 03:40:43;;;;;;;;;;;19.30;33.50;;;;;;8332267;28;20382;-46
2023/03/09 03:44:43;;;;;;;;;;;19.30;33.40;;;;;;8332710;28;19932;-45
2023/03/09 03:48:44;;;;;;;;;;;19.30;33.60;;;;;;8332472;28;20008;-45
2023/03/09 03:52:44;;;;;;;;;;;19.30;33.60;;;;;;8332058;28;19913;-46
2023/03/09 03:56:45;;;;;;;;;;;19.30;33.60;;;;;;8332238;28;20310;-45
2023/03/09 04:00:45;;;;;;;;;;;19.30;34.10;;;;;;8332135;28;19917;-46
2023/03/09 04:04:46;;;;;;;;;;;19.20;34.20;;;;;;8331517;28;19926;-45
2023/03/09 04:08:46;;;;;;;;;;;19.20;34.40;;;;;;8331838;28;19914;-46
2023/03/09 04:12:47;;;;;;;;;;;19.20;34.50;;;;;;8331988;28;19924;-45
2023/03/09 04:16:47;;;;;;;;;;;19.20;34.40;;;;;;8331483;28;19995;-45
2023/03/09 04:20:47;;;;;;;;;;;19.20;34.10;;;;;;8331510;28;20358;-46
2023/03/09 04:24:48;;;;;;;;;;;19.20;34.10;;;;;;8330708;28;19932;-46
2023/03/09 04:28:49;;;;;;;;;;;19.20;34.00;;;;;;8331028;28;20071;-46
2023/03/09 04:32:49;;;;;;;;;;;19.20;34.10;;;;;;8331167;28;20375;-45
2023/03/09 04:36:50;;;;;;;;;;;19.30;34.10;;;;;;8331036;28;19952;-45
2023/03/09 04:40:50;;;;;;;;;;;19.30;33.90;;;;;;8330383;28;20374;-45
2023/03/09 04:44:51;;;;;;;;;;;19.30;34.00;;;;;;8330889;28;19979;-46
2023/03/09 04:48:51;;;;;;;;;;;19.20;33.70;;;;;;8330844;28;19921;-46
2023/03/09 04:52:52;;;;;;;;;;;19.20;33.80;;;;;;8329993;28;20313;-45
2023/03/09 04:56:52;;;;;;;;;;;19.30;33.80;;;;;;8330689;28;19917;-46
2023/03/09 05:00:53;;;;;;;;;;;19.20;33.70;;;;;;8330483;28;19922;-44
2023/03/09 05:04:53;;;;;;;;;;;19.30;34.00;;;;;;8329707;28;19955;-47
2023/03/09 05:08:54;;;;;;;;;;;19.30;33.80;;;;;;8321085;28;19969;-46
2023/03/09 05:12:54;;;;;;;;;;;19.30;34.10;;;;;;8328305;28;19918;-46
2023/03/09 05:16:55;;;;;;;;;;;19.40;34.40;;;;;;8329834;28;19917;-47
2023/03/09 05:20:55;;;;;;;;;;;19.40;33.90;;;;;;8330281;28;20008;-46
2023/03/09 05:24:56;;;;;;;;;;;19.60;33.90;;;;;;8329978;28;20386;-46
2023/03/09 05:28:57;;;;;;;;;;;19.70;33.90;;;;;;8329682;28;19920;-47
2023/03/09 05:32:57;;;;;;;;;;;19.70;34.40;;;;;;8330092;28;19921;-46
2023/03/09 05:36:58;;;;;;;;;;;19.80;34.70;;;;;;8334335;28;19928;-46
2023/03/09 05:41:04;;;;;;;;;;;19.90;34.70;;;;;;8335913;28;19996;-46
2023/03/09 05:45:04;;;;;;;;;;;19.90;34.40;;;;;;8336237;28;19925;-47
2023/03/09 05:49:05;;;;;;;;;;;20.10;34.60;;;;;;8335945;28;19913;-47
2023/03/09 05:53:06;;;;;;;;;;;20.10;34.70;;;;;;8335866;28;19917;-45
2023/03/09 05:57:06;;;;;;;;;;;20.10;34.20;;;;;;8335789;28;19921;-46
2023/03/09 06:01:17;;;;;;;;;;;20.10;34.90;;;;;;8335318;28;20290;-47
2023/03/09 06:05:18;;;;;;;;;;;20.20;34.60;;;;;;8335921;28;19929;-48
2023/03/09 06:09:18;;;;;;;;;;;20.20;34.60;;;;;;8335633;28;20381;-46
2023/03/09 06:13:20;;;;;;;;;;;20.20;34.40;;;;;;8335063;28;19921;-46
2023/03/09 06:17:20;;;;;;;;;;;20.20;34.40;;;;;;8335287;28;19924;-47
2023/03/09 06:21:21;;;;;;;;;;;20.30;34.80;;;;;;8335115;28;20015;-46
2023/03/09 06:25:21;;;;;;;;;;;20.30;34.80;;;;;;8334328;28;20401;-46
2023/03/09 06:29:22;;;;;;;;;;;20.30;34.80;;;;;;8335326;28;20286;-49
2023/03/09 06:33:22;;;;;;;;;;;20.30;34.30;;;;;;8334942;28;20405;-45
2023/03/09 06:37:22;;;;;;;;;;;20.30;34.30;;;;;;8334308;28;19921;-47
2023/03/09 06:41:29;;;;;;;;;;;20.30;34.20;;;;;;8334571;28;19922;-45
2023/03/09 06:45:29;;;;;;;;;;;20.30;34.20;;;;;;8334397;28;19952;-46
2023/03/09 06:49:30;;;;;;;;;;;20.30;34.30;;;;;;8333171;28;19913;-47
2023/03/09 06:53:30;;;;;;;;;;;20.30;34.30;;;;;;8334117;28;19917;-46
2023/03/09 06:57:30;;;;;;;;;;;20.20;34.20;;;;;;8334064;28;19917;-46
2023/03/09 07:01:31;;;;;;;;;;;20.20;34.60;;;;;;8333616;28;19953;-47
2023/03/09 07:05:32;;;;;;;;;;;20.30;34.70;;;;;;8334159;28;20427;-47
2023/03/09 07:09:32;;;;;;;;;;;20.30;34.60;;;;;;8334041;28;19970;-47
2023/03/09 07:13:33;;;;;;;;;;;20.30;34.70;;;;;;8333169;28;19917;-46
2023/03/09 07:17:34;;;;;;;;;;;20.40;34.50;;;;;;8333604;28;19940;-47
2023/03/09 07:21:34;;;;;;;;;;;20.40;34.50;;;;;;8332966;28;20286;-47
2023/03/09 07:25:35;;;;;;;;;;;20.40;34.40;;;;;;8332644;28;20429;-47
2023/03/09 07:29:38;;;;;;;;;;;20.40;34.50;;;;;;8333218;28;19913;-46
2023/03/09 07:33:39;;;;;;;;;;;20.50;34.60;;;;;;8332918;28;19991;-47
2023/03/09 07:37:40;;;;;;;;;;;20.50;34.40;;;;;;8332243;28;19949;-48
2023/03/09 07:41:40;;;;;;;;;;;20.50;34.50;;;;;;8332566;28;19921;-47
2023/03/09 07:45:41;;;;;;;;;;;20.60;34.60;;;;;;8332116;28;19925;-48
2023/03/09 07:49:42;;;;;;;;;;;20.60;34.80;;;;;;8331720;28;19939;-49
2023/03/09 07:53:43;;;;;;;;;;;20.60;34.50;;;;;;8331810;28;20003;-50
2023/03/09 07:57:44;;;;;;;;;;;20.60;34.60;;;;;;8332096;28;20023;-47
2023/03/09 08:01:45;;;;;;;;;;;20.70;34.40;;;;;;8330428;28;20278;-46
2023/03/09 08:05:45;;;;;;;;;;;20.70;34.30;;;;;;8331945;28;19921;-46
2023/03/09 08:09:45;;;;;;;;;;;20.80;34.40;;;;;;8331770;28;19917;-44
2023/03/09 08:13:46;;;;;;;;;;;20.80;34.30;;;;;;8330998;28;19960;-46
2023/03/09 08:17:46;;;;;;;;;;;20.80;34.30;;;;;;8331578;28;19917;-46
2023/03/09 08:21:50;;;;;;;;;;;20.80;34.40;;;;;;8331144;28;19913;-48
2023/03/09 08:25:53;;;;;;;;;;;20.70;34.40;;;;;;8330546;28;19957;-47
2023/03/09 08:29:54;;;;;;;;;;;20.70;34.30;;;;;;8331110;28;19913;-46
2023/03/09 08:33:54;;;;;;;;;;;20.70;34.50;;;;;;8330855;28;19917;-47
2023/03/09 08:37:55;;;;;;;;;;;20.70;34.40;;;;;;8330337;28;20378;-47
2023/03/09 08:41:55;;;;;;;;;;;20.70;34.30;;;;;;8330761;28;20004;-47
2023/03/09 08:45:56;;;;;;;;;;;20.60;34.30;;;;;;8332226;28;21526;-47
2023/03/09 08:49:56;;;;;;;;;;;20.70;34.40;;;;;;8361881;28;19970;-47
2023/03/09 08:53:57;;;;;;;;;;;20.60;34.20;;;;;;8336278;28;19965;-46
2023/03/09 08:57:58;;;;;;;;;;;20.60;34.80;;;;;;8330351;28;20012;-46
2023/03/09 09:01:58;;;;;;;;;;;20.60;34.20;;;;;;8329902;28;19925;-46
2023/03/09 09:06:03;;;;;;;;;;;20.60;34.20;;;;;;8330290;28;19929;-46
2023/03/09 09:10:04;;;;;;;;;;;20.60;34.10;;;;;;8329454;28;20335;-47
2023/03/09 09:14:05;;;;;;;;;;;20.50;34.10;;;;;;8330190;28;20366;-46
2023/03/09 09:18:06;;;;;;;;;;;20.60;34.10;;;;;;8329970;28;19924;-45
2023/03/09 09:22:08;;;;;;;;;;;20.60;34.10;;;;;;8329648;28;19920;-45
2023/03/09 09:26:08;;;;;;;;;;;20.60;34.00;;;;;;8330147;28;19955;-45
2023/03/09 09:30:09;;;;;;;;;;;20.50;33.90;;;;;;8329935;28;20271;-47
2023/03/09 09:34:11;;;;;;;;;;;20.50;33.90;;;;;;8329167;28;19979;-45
2023/03/09 09:38:11;;;;;;;;;;;20.50;33.80;;;;;;8329733;28;19917;-47
2023/03/09 09:42:22;;;;;;;;;;;20.50;33.80;;;;;;8329405;28;20357;-45
2023/03/09 09:46:23;;;;;;;;;;;20.50;33.70;;;;;;8329030;28;20003;-46
2023/03/09 09:50:28;;;;;;;;;;;20.50;33.70;;;;;;8329797;28;19934;-46
2023/03/09 09:54:37;;;;;;;;;;;20.50;33.70;;;;;;8329386;28;20015;-46
2023/03/09 09:58:44;;;;;;;;;;;20.50;33.70;;;;;;8328838;28;19923;-46
2023/03/09 10:03:04;;;;;;;;;;;20.50;33.70;;;;;;8329376;28;19921;-46
2023/03/09 10:07:12;;;;;;;;;;;20.50;33.70;;;;;;8328947;28;19924;-47
2023/03/09 10:11:21;;;;;;;;;;;20.50;33.70;;;;;;8329208;28;19914;-47
2023/03/09 10:15:28;;;;;;;;;;;20.50;33.70;;;;;;8329441;28;19913;-47
2023/03/09 10:19:32;;;;;;;;;;;20.40;33.60;;;;;;8328553;28;19921;-47
2023/03/09 10:23:34;;;;;;;;;;;20.40;33.60;;;;;;8332249;28;19929;-46
2023/03/09 10:27:38;;;;;;;;;;;20.40;33.60;;;;;;8335032;28;19953;-47
2023/03/09 10:31:41;;;;;;;;;;;20.40;33.60;;;;;;8334343;28;19925;-47
2023/03/09 10:35:43;;;;;;;;;;;20.40;33.60;;;;;;8335005;28;19960;-47
2023/03/09 10:39:44;;;;;;;;;;;20.50;33.60;;;;;;8334760;28;19917;-45
2023/03/09 10:43:45;;;;;;;;;;;20.50;33.70;;;;;;8333691;28;19987;-46
2023/03/09 10:47:49;;;;;;;;;;;20.50;33.60;;;;;;8334507;28;19918;-46
2023/03/09 10:51:59;;;;;;;;;;;20.50;33.60;;;;;;8334297;28;19917;-46
2023/03/09 10:56:18;;;;;;;;;;;20.40;33.50;;;;;;8333749;28;19913;-45
2023/03/09 11:00:19;;;;;;;;;;;20.50;33.50;;;;;;8334053;28;20328;-46
2023/03/09 11:04:23;;;;;;;;;;;20.50;33.50;;;;;;8333339;28;19925;-46
2023/03/09 11:08:25;;;;;;;;;;;20.50;33.50;;;;;;8333014;28;19917;-46
2023/03/09 11:12:37;;;;;;;;;;;20.50;33.40;;;;;;8333686;28;19924;-47
2023/03/09 11:16:48;;;;;;;;;;;20.50;33.30;;;;;;8333466;28;19944;-46
2023/03/09 11:20:52;;;;;;;;;;;20.50;33.40;;;;;;8333765;28;20004;-45
2023/03/09 11:24:53;;;;;;;;;;;20.50;33.40;;;;;;8333197;28;20290;-47
2023/03/09 11:28:59;;;;;;;;;;;20.50;33.30;;;;;;8332837;28;20028;-46
2023/03/09 11:32:59;;;;;;;;;;;20.60;33.30;;;;;;8333058;28;20325;-46
2023/03/09 11:37:15;;;;;;;;;;;20.50;33.20;;;;;;8333154;28;20008;-46
2023/03/09 11:41:19;;;;;;;;;;;20.60;33.30;;;;;;8332729;28;19917;-46
2023/03/09 11:45:21;;;;;;;;;;;20.60;33.20;;;;;;8332720;28;19929;-45
2023/03/09 11:49:23;;;;;;;;;;;20.60;33.10;;;;;;8332127;28;19925;-44
2023/03/09 11:53:26;;;;;;;;;;;20.60;33.10;;;;;;8332718;28;19940;-45
2023/03/09 11:57:27;;;;;;;;;;;20.60;33.10;;;;;;8332528;28;20786;-44
2023/03/09 12:01:34;;;;;;;;;;;20.60;33.10;;;;;;8332051;28;19925;-46
2023/03/09 12:05:38;;;;;;;;;;;20.60;33.10;;;;;;8331847;28;19925;-45
2023/03/09 12:09:51;;;;;;;;;;;20.60;33.20;;;;;;8331763;28;19944;-45
2023/03/09 12:14:01;;;;;;;;;;;20.60;33.10;;;;;;8331292;28;19921;-45
2023/03/09 12:18:04;;;;;;;;;;;20.60;33.10;;;;;;8331516;28;19959;-46
2023/03/09 12:22:13;;;;;;;;;;;20.60;33.00;;;;;;8330982;28;19917;-45
2023/03/09 12:26:22;;;;;;;;;;;20.70;33.10;;;;;;8331381;28;19936;-46
2023/03/09 12:30:25;;;;;;;;;;;20.60;33.10;;;;;;8331470;28;19957;-45
2023/03/09 12:34:27;;;;;;;;;;;20.60;33.10;;;;;;8330637;28;20338;-44
2023/03/09 12:38:27;;;;;;;;;;;20.60;33.10;;;;;;8330957;28;19939;-46
2023/03/09 12:42:31;;;;;;;;;;;20.60;33.10;;;;;;8330557;28;19917;-44
2023/03/09 12:46:47;;;;;;;;;;;20.60;33.10;;;;;;8329682;28;20425;-46
2023/03/09 12:50:53;;;;;;;;;;;20.60;33.10;;;;;;8330694;28;19917;-45
2023/03/09 12:54:57;;;;;;;;;;;20.60;33.10;;;;;;8330696;28;19917;-45
2023/03/09 12:58:58;;;;;;;;;;;20.60;33.10;;;;;;8330074;28;19917;-46
2023/03/09 13:03:13;;;;;;;;;;;20.60;33.00;;;;;;8330042;28;19929;-49
2023/03/09 13:07:17;;;;;;;;;;;20.60;33.00;;;;;;8329573;28;21278;-46
2023/03/09 13:11:20;;;;;;;;;;;20.60;33.10;;;;;;8330567;28;19924;-48
2023/03/09 13:15:23;;;;;;;;;;;20.60;33.00;;;;;;8330188;28;19923;-46
2023/03/09 13:19:24;;;;;;;;;;;20.60;33.00;;;;;;8329834;28;19975;-44
2023/03/09 13:23:24;;;;;;;;;;;20.60;33.00;;;;;;8330392;28;20252;-45
2023/03/09 13:27:29;;;;;;;;;;;20.60;33.00;;;;;;8330603;28;19917;-45
2023/03/09 13:31:30;;;;;;;;;;;20.60;33.10;;;;;;8329832;28;19917;-46
2023/03/09 13:35:34;;;;;;;;;;;20.60;33.10;;;;;;8329879;28;19917;-46
2023/03/09 13:39:35;;;;;;;;;;;20.60;33.50;;;;;;8329948;28;20282;-45
2023/03/09 13:43:36;;;;;;;;;;;20.60;32.80;;;;;;8327805;28;19936;-44
2023/03/09 13:47:37;;;;;;;;;;;20.60;32.80;;;;;;8329744;28;19918;-45
2023/03/09 13:51:39;;;;;;;;;;;20.60;32.90;;;;;;8319683;28;19918;-45
2023/03/09 13:55:39;;;;;;;;;;;20.60;32.90;;;;;;8301403;28;20000;-46
2023/03/09 13:59:58;;;;;;;;;;;20.60;32.80;;;;;;8309295;28;20295;-46
2023/03/09 14:03:58;;;;;;;;;;;20.60;32.70;;;;;;8306854;28;19929;-45
2023/03/09 14:07:59;;;;;;;;;;;20.60;33.40;;;;;;8305231;28;20408;-45
2023/03/09 14:12:01;;;;;;;;;;;20.60;32.80;;;;;;8333544;28;20420;-46
2023/03/09 14:16:05;;;;;;;;;;;20.60;33.30;;;;;;8329543;28;20003;-46
2023/03/09 14:20:14;;;;;;;;;;;20.60;32.70;;;;;;8332059;28;20378;-44
2023/03/09 14:24:17;;;;;;;;;;;20.60;32.60;;;;;;8334711;28;19925;-46
2023/03/09 14:28:28;;;;;;;;;;;20.60;32.70;;;;;;8333066;28;19917;-45
2023/03/09 14:32:29;;;;;;;;;;;20.60;32.70;;;;;;8327545;28;19983;-47
2023/03/09 14:36:38;;;;;;;;;;;20.60;32.70;;;;;;8321196;28;20329;-46
2023/03/09 14:40:38;;;;;;;;;;;20.60;32.60;;;;;;8320741;28;19917;-46
2023/03/09 14:44:40;;;;;;;;;;;20.60;32.60;;;;;;8334248;28;20019;-46
2023/03/09 14:48:41;;;;;;;;;;;20.60;32.70;;;;;;8329079;28;20008;-46
2023/03/09 14:52:41;;;;;;;;;;;20.60;32.60;;;;;;8305249;28;19917;-46
2023/03/09 14:56:42;;;;;;;;;;;20.60;32.60;;;;;;8338362;28;20421;-45
2023/03/09 15:00:42;;;;;;;;;;;20.60;32.60;;;;;;8338353;28;19968;-47
2023/03/09 15:04:44;;;;;;;;;;;20.60;32.60;;;;;;8333237;28;19929;-49
2023/03/09 15:08:45;;;;;;;;;;;20.60;32.50;;;;;;8330654;28;19917;-45
2023/03/09 15:12:46;;;;;;;;;;;20.60;32.50;;;;;;8313905;28;19917;-47
2023/03/09 15:16:46;;;;;;;;;;;20.60;32.50;;;;;;8302273;28;19949;-46
2023/03/09 15:20:46;;;;;;;;;;;20.50;32.50;;;;;;8306619;28;19924;-46
2023/03/09 15:24:47;;;;;;;;;;;20.50;32.50;;;;;;8333431;28;19925;-45
2023/03/09 15:28:47;;;;;;;;;;;20.50;32.50;;;;;;8332808;28;20002;-46
2023/03/09 15:32:48;;;;;;;;;;;20.50;32.50;;;;;;8333325;28;20298;-47
2023/03/09 15:36:48;;;;;;;;;;;20.50;32.50;;;;;;8332792;28;20051;-46
2023/03/09 15:40:49;;;;;;;;;;;20.60;32.50;;;;;;8321643;28;19921;-46
2023/03/09 15:44:49;;;;;;;;;;;20.50;32.50;;;;;;8331383;28;20382;-47
2023/03/09 15:48:50;;;;;;;;;;;20.50;32.50;;;;;;8316785;28;19925;-46
2023/03/09 15:52:50;;;;;;;;;;;20.50;32.50;;;;;;8331026;28;19917;-46
2023/03/09 15:56:51;;;;;;;;;;;20.50;32.50;;;;;;8328394;28;19928;-47
2023/03/09 16:00:59;;;;;;;;;;;20.50;32.50;;;;;;8312238;28;20414;-45
2023/03/09 16:04:59;;;;;;;;;;;20.50;32.50;;;;;;8327878;28;20318;-46
2023/03/09 16:08:59;;;;;;;;;;;20.50;32.50;;;;;;8331619;28;19918;-46
2023/03/09 16:13:00;;;;;;;;;;;20.50;32.90;;;;;;8330916;28;19920;-45
2023/03/09 16:17:01;;;;;;;;;;;20.60;32.80;;;;;;8330612;28;20028;-46
2023/03/09 16:21:01;;;;;;;;;;;20.70;32.70;;;;;;8330709;28;20437;-50
2023/03/09 16:25:02;;;;;;;;;;;20.80;32.70;;;;;;8331082;28;20390;-47
2023/03/09 16:29:03;;;;;;;;;;;20.90;32.70;;;;;;8330401;28;19995;-49
2023/03/09 16:33:04;;;;;;;;;;;20.90;32.70;;;;;;8331241;28;20398;-45
2023/03/09 16:37:05;;;;;;;;;;;20.90;32.60;;;;;;8330864;28;19925;-45
2023/03/09 16:41:06;;;;;;;;;;;21.00;32.70;;;;;;8330819;28;19924;-47
2023/03/09 16:45:08;;;;;;;;;;;21.10;32.70;;;;;;8330809;28;19971;-46
2023/03/09 16:49:10;;;;;;;;;;;21.10;32.60;;;;;;8330435;28;19914;-46
2023/03/09 16:53:10;;;;;;;;;;;21.20;32.60;;;;;;8330922;28;19917;-47
2023/03/09 16:57:11;;;;;;;;;;;21.10;32.60;;;;;;8330487;28;19921;-46
2023/03/09 17:01:13;;;;;;;;;;;21.20;32.60;;;;;;8329880;28;19921;-47
2023/03/09 17:05:14;;;;;;;;;;;21.20;32.40;;;;;;8328830;28;20367;-46
2023/03/09 17:09:14;;;;;;;;;;;21.30;32.60;;;;;;8329869;28;19913;-45
2023/03/09 17:13:15;;;;;;;;;;;21.30;32.50;;;;;;8329847;28;19924;-46
2023/03/09 17:17:16;;;;;;;;;;;21.30;32.50;;;;;;8329974;28;20055;-46
2023/03/09 17:21:16;;;;;;;;;;;21.30;32.50;;;;;;8329938;28;19976;-46
2023/03/09 17:25:18;;;;;;;;;;;21.30;32.50;;;;;;8329245;28;20382;-46
2023/03/09 17:29:19;;;;;;;;;;;21.30;32.50;;;;;;8329678;28;19917;-45
2023/03/09 17:33:19;;;;;;;;;;;21.30;32.60;;;;;;8335031;28;20338;-46
2023/03/09 17:37:20;;;;;;;;;;;21.20;32.50;;;;;;8335595;28;20000;-46
2023/03/09 17:41:21;;;;;;;;;;;21.20;32.40;;;;;;8336278;28;19917;-45
2023/03/09 17:45:21;;;;;;;;;;;21.20;32.50;;;;;;8335431;28;20097;-45
2023/03/09 17:49:22;;;;;;;;;;;21.20;32.80;;;;;;8335162;28;19997;-45
2023/03/09 17:53:24;;;;;;;;;;;21.20;32.60;;;;;;8336471;28;19913;-46
2023/03/09 17:57:25;;;;;;;;;;;21.20;32.60;;;;;;8336232;28;19917;-47
2023/03/09 18:01:26;;;;;;;;;;;21.20;32.60;;;;;;8335433;28;19927;-45
2023/03/09 18:05:29;;;;;;;;;;;21.10;32.70;;;;;;8336000;28;20048;-46
2023/03/09 18:09:29;;;;;;;;;;;21.10;32.80;;;;;;8335538;28;19921;-45
2023/03/09 18:13:29;;;;;;;;;;;21.10;32.80;;;;;;8335269;28;20000;-47
2023/03/09 18:17:30;;;;;;;;;;;21.10;32.70;;;;;;8335445;28;20329;-47
2023/03/09 18:21:30;;;;;;;;;;;21.20;32.60;;;;;;8335312;28;20008;-47
2023/03/09 18:25:34;;;;;;;;;;;21.20;32.80;;;;;;8334487;28;19925;-46
2023/03/09 18:29:35;;;;;;;;;;;21.30;32.80;;;;;;8335079;28;20369;-46
2023/03/09 18:33:35;;;;;;;;;;;21.30;32.70;;;;;;8335390;28;19918;-48
2023/03/09 18:37:37;;;;;;;;;;;21.30;32.60;;;;;;8334154;28;19925;-46
2023/03/09 18:41:37;;;;;;;;;;;21.40;32.60;;;;;;8334952;28;19921;-46
2023/03/09 18:45:39;;;;;;;;;;;21.40;32.60;;;;;;8333421;28;19971;-46
2023/03/09 18:49:40;;;;;;;;;;;21.40;32.60;;;;;;8333785;28;19924;-45
2023/03/09 18:53:41;;;;;;;;;;;21.40;32.60;;;;;;8334845;28;19917;-45
2023/03/09 18:57:42;;;;;;;;;;;21.40;32.50;;;;;;8334506;28;19917;-47
2023/03/09 19:01:43;;;;;;;;;;;21.40;32.60;;;;;;8333530;28;19932;-44
2023/03/09 19:05:43;;;;;;;;;;;21.40;32.50;;;;;;8333764;28;19925;-46
2023/03/09 19:09:48;;;;;;;;;;;21.40;32.60;;;;;;8334019;28;19917;-46
2023/03/09 19:13:49;;;;;;;;;;;21.40;32.70;;;;;;8333371;28;20393;-46
2023/03/09 19:17:49;;;;;;;;;;;21.40;32.60;;;;;;8333899;28;20323;-46
2023/03/09 19:21:50;;;;;;;;;;;21.40;32.50;;;;;;8333495;28;19920;-46
2023/03/09 19:25:54;;;;;;;;;;;21.30;32.50;;;;;;8332636;28;19925;-46
2023/03/09 19:29:54;;;;;;;;;;;21.30;32.60;;;;;;8333322;28;19913;-47
2023/03/09 19:33:55;;;;;;;;;;;21.20;32.60;;;;;;8333314;28;19917;-46
2023/03/09 19:37:56;;;;;;;;;;;21.20;32.70;;;;;;8332772;28;20359;-46
2023/03/09 19:41:56;;;;;;;;;;;21.20;32.80;;;;;;8332920;28;19921;-46
2023/03/09 19:45:58;;;;;;;;;;;21.20;32.70;;;;;;8332715;28;19921;-46
2023/03/09 19:49:58;;;;;;;;;;;21.20;32.90;;;;;;8332231;28;20375;-45
2023/03/09 19:53:59;;;;;;;;;;;21.20;32.70;;;;;;8332418;28;19921;-45
2023/03/09 19:57:59;;;;;;;;;;;21.20;32.80;;;;;;8332734;28;20452;-45
2023/03/09 20:02:00;;;;;;;;;;;21.20;32.80;;;;;;8331929;28;20006;-49
2023/03/09 20:06:01;;;;;;;;;;;21.20;32.70;;;;;;8332174;28;19928;-47
2023/03/09 20:10:02;;;;;;;;;;;21.20;32.70;;;;;;8331001;28;20417;-46
2023/03/09 20:14:03;;;;;;;;;;;21.10;32.70;;;;;;8331296;28;19921;-46
2023/03/09 20:18:03;;;;;;;;;;;21.10;32.80;;;;;;8331693;28;19943;-47
2023/03/09 20:22:06;;;;;;;;;;;21.10;32.80;;;;;;8331644;28;19917;-45
2023/03/09 20:26:08;;;;;;;;;;;21.10;32.70;;;;;;8331286;28;20325;-45
2023/03/09 20:30:09;;;;;;;;;;;21.10;32.60;;;;;;8331594;28;19939;-45
2023/03/09 20:34:11;;;;;;;;;;;21.10;32.70;;;;;;8330459;28;19921;-45
2023/03/09 20:38:11;;;;;;;;;;;21.10;32.60;;;;;;8330817;28;19917;-44
2023/03/09 20:42:13;;;;;;;;;;;21.10;32.60;;;;;;8331333;28;19921;-45
2023/03/09 20:46:15;;;;;;;;;;;21.20;32.70;;;;;;8330533;28;19978;-45
2023/03/09 20:50:16;;;;;;;;;;;21.10;32.60;;;;;;8331390;28;20366;-48
2023/03/09 20:54:21;;;;;;;;;;;21.10;32.60;;;;;;8330621;28;19971;-46
2023/03/09 20:58:21;;;;;;;;;;;21.10;32.60;;;;;;8330147;28;20412;-46
2023/03/09 21:02:22;;;;;;;;;;;21.10;32.70;;;;;;8313217;28;19921;-47
2023/03/09 21:06:23;;;;;;;;;;;21.10;32.60;;;;;;8329496;28;20039;-45
2023/03/09 21:10:23;;;;;;;;;;;21.10;32.60;;;;;;8329918;28;19917;-46
2023/03/09 21:14:24;;;;;;;;;;;21.10;32.60;;;;;;8330537;28;20362;-46
2023/03/09 21:18:24;;;;;;;;;;;21.10;32.60;;;;;;8330125;28;19917;-45
2023/03/09 21:22:25;;;;;;;;;;;21.10;32.60;;;;;;8329638;28;19917;-46
2023/03/09 21:26:26;;;;;;;;;;;21.10;32.60;;;;;;8330251;28;19944;-47
2023/03/09 21:30:26;;;;;;;;;;;21.10;32.50;;;;;;8330493;28;20050;-44
2023/03/09 21:34:27;;;;;;;;;;;21.10;32.50;;;;;;8311884;28;19921;-46
2023/03/09 21:38:29;;;;;;;;;;;21.10;32.50;;;;;;8330140;28;19964;-44
2023/03/09 21:42:30;;;;;;;;;;;21.10;32.40;;;;;;8330092;28;19914;-45
2023/03/09 21:46:30;;;;;;;;;;;21.10;32.40;;;;;;8329111;28;19932;-46
2023/03/09 21:50:31;;;;;;;;;;;21.10;32.50;;;;;;8330187;28;19996;-44
2023/03/09 21:54:31;;;;;;;;;;;21.10;32.50;;;;;;8329650;28;19924;-46
2023/03/09 21:58:32;;;;;;;;;;;21.10;32.50;;;;;;8329072;28;20066;-46
2023/03/09 22:02:33;;;;;;;;;;;21.10;32.50;;;;;;8329569;28;19949;-47
2023/03/09 22:06:33;;;;;;;;;;;21.00;32.40;;;;;;8329395;28;20306;-44
2023/03/09 22:10:34;;;;;;;;;;;21.10;32.50;;;;;;8311045;28;19960;-46
2023/03/09 22:14:34;;;;;;;;;;;21.00;32.40;;;;;;8329263;28;19917;-47
2023/03/09 22:18:35;;;;;;;;;;;21.00;32.40;;;;;;8332752;28;20309;-47
2023/03/09 22:22:36;;;;;;;;;;;21.00;32.30;;;;;;8335039;28;19917;-47
2023/03/09 22:26:37;;;;;;;;;;;21.00;32.40;;;;;;8335258;28;19960;-48
2023/03/09 22:30:37;;;;;;;;;;;21.00;32.40;;;;;;8335250;28;19921;-48
2023/03/09 22:34:38;;;;;;;;;;;21.00;32.40;;;;;;8334498;28;20405;-46
2023/03/09 22:38:39;;;;;;;;;;;21.00;32.50;;;;;;8335046;28;20007;-46
2023/03/09 22:42:40;;;;;;;;;;;20.90;32.60;;;;;;8335118;28;19923;-45
2023/03/09 22:46:40;;;;;;;;;;;20.90;32.60;;;;;;8316264;28;19921;-45
2023/03/09 22:50:40;;;;;;;;;;;20.90;32.60;;;;;;8300860;28;20333;-45
2023/03/09 22:54:43;;;;;;;;;;;20.90;32.50;;;;;;8334616;28;19923;-46
2023/03/09 22:58:44;;;;;;;;;;;20.80;32.40;;;;;;8333774;28;20440;-46
2023/03/09 23:02:45;;;;;;;;;;;20.80;32.40;;;;;;8333543;28;19975;-45
2023/03/09 23:06:46;;;;;;;;;;;20.80;32.50;;;;;;8334219;28;19921;-46
2023/03/09 23:10:48;;;;;;;;;;;20.80;32.50;;;;;;8300087;28;20145;-45
2023/03/09 23:14:50;;;;;;;;;;;20.70;32.40;;;;;;8329625;28;19921;-46
2023/03/09 23:18:50;;;;;;;;;;;20.70;32.60;;;;;;8333578;28;19917;-45
2023/03/09 23:22:51;;;;;;;;;;;20.70;32.50;;;;;;8332818;28;20374;-45
2023/03/09 23:26:52;;;;;;;;;;;20.70;32.40;;;;;;8333590;28;19921;-45